createdAt,value
2023-01-10T00:01:01.912Z,34.43
2023-01-10T00:03:31.500Z,31.20
2023-01-10T00:06:02.794Z,31.87
2023-01-10T00:08:31.104Z,33.87
2023-01-10T00:11:19.368Z,28.13
2023-01-10T00:13:46.574Z,32.30
2023-01-10T00:16:14.885Z,33.13
2023-01-10T00:18:44.500Z,34.43
2023-01-10T00:21:15.525Z,31.87
2023-01-10T00:23:44.394Z,32.53
2023-01-10T00:26:13.074Z,29.77
2023-01-10T00:28:42.169Z,32.57
2023-01-10T00:31:12.176Z,32.27
2023-01-10T00:33:40.717Z,30.00
2023-01-10T00:36:11.755Z,33.13
2023-01-10T00:38:40.019Z,29.43
2023-01-10T00:41:29.196Z,29.57
2023-01-10T00:43:59.334Z,29.10
2023-01-10T00:46:27.759Z,32.30
2023-01-10T00:48:57.363Z,27.03
2023-01-10T00:51:26.979Z,28.43
2023-01-10T00:53:55.154Z,27.87
2023-01-10T00:56:24.080Z,27.23
2023-01-10T00:58:55.095Z,23.97
2023-01-10T01:01:23.541Z,26.07
2023-01-10T01:03:51.789Z,27.27
2023-01-10T01:06:20.971Z,26.87
2023-01-10T01:08:51.821Z,28.33
2023-01-10T01:11:36.165Z,27.17
2023-01-10T01:14:04.517Z,30.20
2023-01-10T01:16:33.579Z,27.27
2023-01-10T01:19:05.572Z,29.37
2023-01-10T01:21:33.824Z,28.57
2023-01-10T01:24:03.497Z,30.70
2023-01-10T01:26:31.734Z,25.43
2023-01-10T01:28:59.963Z,26.83
2023-01-10T01:31:28.172Z,25.47
2023-01-10T01:33:56.444Z,26.33
2023-01-10T01:36:24.674Z,24.67
2023-01-10T01:39:44.515Z,28.53
2023-01-10T01:42:23.240Z,25.50
2023-01-10T01:46:01.060Z,26.13
2023-01-10T01:48:37.297Z,29.40
2023-01-10T01:51:11.034Z,27.17
2023-01-10T01:53:47.518Z,23.93
2023-01-10T01:56:19.226Z,24.77
2023-01-10T01:58:54.007Z,21.67
2023-01-10T02:01:23.637Z,26.23
2023-01-10T02:03:56.030Z,23.77
2023-01-10T02:06:26.869Z,28.63
2023-01-10T02:09:03.944Z,29.87
2023-01-10T02:11:32.262Z,22.93
2023-01-10T02:14:03.660Z,24.13
2023-01-10T02:16:32.016Z,22.87
2023-01-10T02:19:00.432Z,22.17
2023-01-10T02:21:50.766Z,26.17
2023-01-10T02:24:56.223Z,23.70
2023-01-10T02:27:30.330Z,26.33
2023-01-10T02:30:32.741Z,24.27
2023-01-10T02:33:09.340Z,22.53
2023-01-10T02:36:21.414Z,23.97
2023-01-10T02:39:02.959Z,24.33
2023-01-10T02:41:39.299Z,23.97
2023-01-10T02:44:21.224Z,22.77
2023-01-10T02:46:50.494Z,21.47
2023-01-10T02:50:02.927Z,23.03
2023-01-10T02:52:32.497Z,24.47
2023-01-10T02:55:04.122Z,22.03
2023-01-10T02:57:42.614Z,23.90
2023-01-10T03:00:38.587Z,21.30
2023-01-10T03:03:19.811Z,22.10
2023-01-10T03:06:07.744Z,25.13
2023-01-10T03:08:43.793Z,22.57
2023-01-10T03:11:13.057Z,40.47
2023-01-10T03:13:48.872Z,24.33
2023-01-10T03:16:20.319Z,23.27
2023-01-10T03:19:07.567Z,21.57
2023-01-10T03:21:39.791Z,22.33
2023-01-10T03:24:12.201Z,22.27
2023-01-10T03:26:48.605Z,23.50
2023-01-10T03:29:21.731Z,22.57
2023-01-10T03:31:53.654Z,22.07
2023-01-10T03:34:23.339Z,22.33
2023-01-10T03:37:20.834Z,29.53
2023-01-10T03:39:55.539Z,22.47
2023-01-10T03:42:50.804Z,23.53
2023-01-10T03:45:25.796Z,27.80
2023-01-10T03:47:57.005Z,23.70
2023-01-10T03:50:27.813Z,19.10
2023-01-10T03:52:58.544Z,23.47
2023-01-10T03:55:29.663Z,22.63
2023-01-10T03:57:57.888Z,20.70
2023-01-10T04:00:26.317Z,22.00
2023-01-10T04:02:55.753Z,20.13
2023-01-10T04:05:33.139Z,19.87
2023-01-10T04:08:02.824Z,21.23
2023-01-10T04:10:31.188Z,23.47
2023-01-10T04:13:02.720Z,21.97
2023-01-10T04:15:31.702Z,23.57
2023-01-10T04:17:59.863Z,19.13
2023-01-10T04:20:28.098Z,21.57
2023-01-10T04:22:56.387Z,19.73
2023-01-10T04:25:26.069Z,19.50
2023-01-10T04:27:56.069Z,23.47
2023-01-10T04:30:24.292Z,20.20
2023-01-10T04:32:52.560Z,20.17
2023-01-10T04:35:27.033Z,21.60
2023-01-10T04:38:20.292Z,20.57
2023-01-10T04:40:55.827Z,22.00
2023-01-10T04:43:24.773Z,18.53
2023-01-10T04:45:53.451Z,20.33
2023-01-10T04:48:21.746Z,23.00
2023-01-10T04:50:53.351Z,20.77
2023-01-10T04:53:22.164Z,19.80
2023-01-10T04:55:50.653Z,24.83
2023-01-10T04:58:20.226Z,23.10
2023-01-10T05:00:48.483Z,21.50
2023-01-10T05:03:20.940Z,20.87
2023-01-10T05:05:53.258Z,21.97
2023-01-10T05:08:21.590Z,26.73
2023-01-10T05:10:49.830Z,23.10
2023-01-10T05:13:19.422Z,24.97
2023-01-10T05:15:47.665Z,28.73
2023-01-10T05:18:15.869Z,25.03
2023-01-10T05:20:44.104Z,25.93
2023-01-10T05:23:15.129Z,30.70
2023-01-10T05:25:43.439Z,27.50
2023-01-10T05:28:11.687Z,26.13
2023-01-10T05:30:41.392Z,22.30
2023-01-10T05:33:09.688Z,27.83
2023-01-10T05:35:37.963Z,25.67
2023-01-10T05:38:06.202Z,25.47
2023-01-10T05:40:34.483Z,20.40
2023-01-10T05:43:02.728Z,22.17
2023-01-10T05:45:31.003Z,21.33
2023-01-10T05:48:00.626Z,25.30
2023-01-10T05:50:28.891Z,23.57
2023-01-10T05:52:58.121Z,27.23
2023-01-10T05:58:31.077Z,23.80
2023-01-10T06:01:00.345Z,27.00
2023-01-10T06:03:30.085Z,27.93
2023-01-10T06:05:58.624Z,27.83
2023-01-10T06:08:26.829Z,27.33
2023-01-10T06:10:55.048Z,24.93
2023-01-10T06:13:23.379Z,23.93
2023-01-10T06:15:52.000Z,27.47
2023-01-10T06:18:20.251Z,24.20
2023-01-10T06:20:50.024Z,28.17
2023-01-10T06:23:18.204Z,26.07
2023-01-10T06:25:46.471Z,27.17
2023-01-10T06:28:15.666Z,26.37
2023-01-10T06:30:44.409Z,22.50
2023-01-10T06:33:13.264Z,20.90
2023-01-10T06:35:41.598Z,21.67
2023-01-10T06:38:11.280Z,28.73
2023-01-10T06:40:39.523Z,27.27
2023-01-10T06:43:07.884Z,26.03
2023-01-10T06:45:36.083Z,28.70
2023-01-10T06:48:04.666Z,29.43
2023-01-10T06:50:32.952Z,28.17
2023-01-10T06:53:03.152Z,27.03
2023-01-10T06:55:58.382Z,22.53
2023-01-10T06:58:26.694Z,22.23
2023-01-10T07:00:54.981Z,23.57
2023-01-10T07:03:29.384Z,27.73
2023-01-10T07:06:01.198Z,23.60
2023-01-10T07:20:59.781Z,27.83
2023-01-10T07:23:28.126Z,24.53
2023-01-10T07:25:56.348Z,21.97
2023-01-10T07:28:24.853Z,23.00
2023-01-10T07:30:53.067Z,24.67
2023-01-10T07:33:21.367Z,27.60
2023-01-10T07:35:49.604Z,23.77
2023-01-10T07:38:19.231Z,23.50
2023-01-10T07:40:47.456Z,23.53
2023-01-10T07:43:15.646Z,25.03
2023-01-10T07:45:43.965Z,24.30
2023-01-10T07:48:12.157Z,29.33
2023-01-10T07:50:40.484Z,24.93
2023-01-10T07:53:09.350Z,27.77
2023-01-10T07:55:40.251Z,24.93
2023-01-10T07:58:09.027Z,23.37
2023-01-10T08:00:38.397Z,26.07
2023-01-10T08:03:07.110Z,24.00
2023-01-10T08:05:35.473Z,20.33
2023-01-10T08:08:06.137Z,29.03
2023-01-10T08:10:35.487Z,28.80
2023-01-10T08:13:17.810Z,24.80
2023-01-10T08:15:50.357Z,35.10
2023-01-10T08:18:19.057Z,26.90
2023-01-10T08:20:48.458Z,30.27
2023-01-10T08:23:16.781Z,38.20
2023-01-10T08:25:45.033Z,34.00
2023-01-10T08:28:15.301Z,29.87
2023-01-10T08:30:43.519Z,32.77
2023-01-10T08:33:13.266Z,29.03
2023-01-10T08:35:43.326Z,25.20
2023-01-10T08:38:12.714Z,33.80
2023-01-10T08:40:40.959Z,31.37
2023-01-10T08:43:12.524Z,32.30
2023-01-10T08:45:42.385Z,32.93
2023-01-10T08:48:11.563Z,28.63
2023-01-10T08:50:39.878Z,28.30
2023-01-10T08:53:08.086Z,27.67
2023-01-10T08:55:36.469Z,31.80
2023-01-10T08:58:04.798Z,28.80
2023-01-10T09:00:33.032Z,33.57
2023-01-10T09:03:02.674Z,26.50
2023-01-10T09:05:36.758Z,28.63
2023-01-10T09:08:05.306Z,30.43
2023-01-10T09:10:33.562Z,25.53
2023-01-10T09:13:02.130Z,33.63
2023-01-10T09:15:32.254Z,30.63
2023-01-10T09:18:04.729Z,29.03
2023-01-10T09:20:35.310Z,29.17
2023-01-10T09:23:17.519Z,30.63
2023-01-10T09:25:47.007Z,31.00
2023-01-10T09:28:15.527Z,28.90
2023-01-10T09:30:44.381Z,30.97
2023-01-10T09:33:14.863Z,32.93
2023-01-10T09:35:44.198Z,30.77
2023-01-10T09:39:04.478Z,29.07
2023-01-10T09:42:10.387Z,30.43
2023-01-10T09:44:47.865Z,28.07
2023-01-10T09:47:23.989Z,30.07
2023-01-10T09:50:11.046Z,28.40
2023-01-10T09:52:44.520Z,32.27
2023-01-10T09:55:27.247Z,28.67
2023-01-10T09:57:58.099Z,34.50
2023-01-10T10:00:40.417Z,26.63
2023-01-10T10:03:21.842Z,31.57
2023-01-10T10:05:55.964Z,32.53
2023-01-10T10:08:26.483Z,31.10
2023-01-10T10:11:03.525Z,28.33
2023-01-10T10:13:43.605Z,27.07
2023-01-10T10:16:23.025Z,27.67
2023-01-10T10:18:59.516Z,28.30
2023-01-10T10:21:38.545Z,26.03
2023-01-10T10:24:25.550Z,30.27
2023-01-10T10:26:59.578Z,26.63
2023-01-10T10:29:59.099Z,28.60
2023-01-10T10:32:41.499Z,24.23
2023-01-10T10:35:15.032Z,28.70
2023-01-10T10:37:49.285Z,24.73
2023-01-10T10:40:20.647Z,27.13
2023-01-10T10:42:52.495Z,26.37
2023-01-10T10:45:27.017Z,26.00
2023-01-10T10:48:03.412Z,29.03
2023-01-10T10:50:34.568Z,32.07
2023-01-10T10:53:05.671Z,27.10
2023-01-10T10:55:36.987Z,28.23
2023-01-10T10:58:06.795Z,28.20
2023-01-10T11:00:35.844Z,25.63
2023-01-10T11:03:07.910Z,29.67
2023-01-10T11:05:40.816Z,26.30
2023-01-10T11:08:13.881Z,29.17
2023-01-10T11:10:43.694Z,27.07
2023-01-10T11:13:22.533Z,26.90
2023-01-10T11:15:53.548Z,22.80
2023-01-10T11:18:25.561Z,22.67
2023-01-10T11:20:58.815Z,22.97
2023-01-10T11:23:41.752Z,23.17
2023-01-10T11:26:12.353Z,23.47
2023-01-10T11:28:41.162Z,25.67
2023-01-10T11:31:09.782Z,24.73
2023-01-10T11:33:40.195Z,24.77
2023-01-10T11:36:50.907Z,21.63
2023-01-10T11:39:20.728Z,24.30
2023-01-10T11:41:49.386Z,24.87
2023-01-10T11:44:21.901Z,25.80
2023-01-10T11:46:51.471Z,23.30
2023-01-10T11:49:30.558Z,27.17
2023-01-10T11:52:04.413Z,22.03
2023-01-10T11:54:34.736Z,29.60
2023-01-10T11:57:08.060Z,24.10
2023-01-10T11:59:39.162Z,21.63
2023-01-10T12:02:18.867Z,20.73
2023-01-10T12:04:47.754Z,21.97
2023-01-10T12:07:17.058Z,21.17
2023-01-10T12:09:56.446Z,18.67
2023-01-10T12:12:26.848Z,20.87
2023-01-10T12:14:57.410Z,17.93
2023-01-10T12:17:27.882Z,19.07
2023-01-10T12:20:00.403Z,19.37
2023-01-10T12:22:32.884Z,20.73
2023-01-10T12:25:07.501Z,17.90
2023-01-10T12:27:35.768Z,18.13
2023-01-10T12:30:08.246Z,17.27
2023-01-10T12:32:44.267Z,15.40
2023-01-10T12:35:18.443Z,18.10
2023-01-10T12:37:51.531Z,14.13
2023-01-10T12:40:31.087Z,15.40
2023-01-10T12:46:56.573Z,11.30
2023-01-10T12:49:49.048Z,9.80
2023-01-10T12:52:23.918Z,10.23
2023-01-10T12:54:52.379Z,10.93
2023-01-10T12:57:29.046Z,10.37
2023-01-10T13:00:01.818Z,8.43
2023-01-10T13:02:56.327Z,8.50
2023-01-10T13:05:26.467Z,23.27
2023-01-10T13:08:01.539Z,32.30
2023-01-10T13:10:31.016Z,27.43
2023-01-10T13:13:05.125Z,27.20
2023-01-10T13:15:37.982Z,25.37
2023-01-10T13:18:18.339Z,27.43
2023-01-10T13:20:46.943Z,29.10
2023-01-10T13:23:31.213Z,34.03
2023-01-10T13:26:02.916Z,14.00
2023-01-10T13:28:35.115Z,12.13
2023-01-10T13:31:30.697Z,8.37
2023-01-10T13:34:16.570Z,10.13
2023-01-10T13:36:50.941Z,6.47
2023-01-10T13:39:25.787Z,8.13
2023-01-10T13:42:47.109Z,7.93
2023-01-10T13:45:25.379Z,6.30
2023-01-10T13:48:25.501Z,12.40
2023-01-10T13:51:06.827Z,11.30
2023-01-10T13:53:58.283Z,15.53
2023-01-10T13:56:37.452Z,14.47
2023-01-10T13:59:29.564Z,10.90
2023-01-10T14:02:19.135Z,17.93
2023-01-10T14:04:50.436Z,11.37
2023-01-10T14:07:44.371Z,8.47
2023-01-10T14:10:21.734Z,8.17
2023-01-10T14:12:53.516Z,7.93
2023-01-10T14:15:26.067Z,6.77
2023-01-10T14:18:04.668Z,6.80
2023-01-10T14:20:34.917Z,8.17
2023-01-10T14:23:07.124Z,8.20
2023-01-10T14:25:37.707Z,6.73
2023-01-10T14:28:17.267Z,7.10
2023-01-10T14:30:47.068Z,9.00
2023-01-10T14:33:21.157Z,11.13
2023-01-10T14:35:54.199Z,9.93
2023-01-10T14:38:27.214Z,13.47
2023-01-10T14:41:01.850Z,11.30
2023-01-10T14:43:38.682Z,10.30
2023-01-10T14:46:13.616Z,12.70
2023-01-10T14:48:51.034Z,9.10
2023-01-10T14:51:23.630Z,9.93
2023-01-10T14:54:00.011Z,7.70
2023-01-10T14:56:30.130Z,11.37
2023-01-10T14:58:58.415Z,4.70
2023-01-10T15:01:29.641Z,7.93
2023-01-10T15:04:02.829Z,8.00
2023-01-10T15:06:31.144Z,7.47
2023-01-10T15:09:03.658Z,11.33
2023-01-10T15:11:33.802Z,15.50
2023-01-10T15:14:07.912Z,12.17
2023-01-10T15:16:38.971Z,15.13
2023-01-10T15:19:14.265Z,15.40
2023-01-10T15:21:43.966Z,10.13
2023-01-10T15:24:35.162Z,6.17
2023-01-10T15:27:05.837Z,4.30
2023-01-10T15:29:34.652Z,5.67
2023-01-10T15:32:10.246Z,6.40
2023-01-10T15:34:42.324Z,3.97
2023-01-10T15:37:22.215Z,3.53
2023-01-10T15:39:50.958Z,3.30
2023-01-10T15:42:44.637Z,2.93
2023-01-10T15:45:28.749Z,5.00
2023-01-10T15:48:03.738Z,3.50
2023-01-10T15:50:38.734Z,3.73
2023-01-10T15:53:09.497Z,2.80
2023-01-10T15:55:40.999Z,2.00
2023-01-10T15:58:36.306Z,2.30
2023-01-10T16:01:05.605Z,5.43
2023-01-10T16:03:37.632Z,2.60
2023-01-10T16:06:09.968Z,2.70
2023-01-10T16:08:39.910Z,5.20
2023-01-10T16:11:10.246Z,6.60
2023-01-10T16:13:37.540Z,2.60
2023-01-10T16:16:16.414Z,3.27
2023-01-10T16:18:44.693Z,2.03
2023-01-10T16:21:15.120Z,3.90
2023-01-10T16:23:46.079Z,6.20
2023-01-10T16:26:14.757Z,5.67
2023-01-10T16:28:43.034Z,2.23
2023-01-10T16:31:14.437Z,2.40
2023-01-10T16:33:42.762Z,1.63
2023-01-10T16:36:38.182Z,2.27
2023-01-10T16:39:09.545Z,2.07
2023-01-10T16:42:19.830Z,1.53
2023-01-10T16:44:48.137Z,2.33
2023-01-10T16:47:16.506Z,3.60
2023-01-10T16:49:46.891Z,2.60
2023-01-10T16:52:16.574Z,3.40
2023-01-10T16:54:44.919Z,4.17
2023-01-10T16:57:14.850Z,4.97
2023-01-10T16:59:43.098Z,6.10
2023-01-10T17:02:19.611Z,5.30
2023-01-10T17:04:48.002Z,5.50
2023-01-10T17:07:17.591Z,5.70
2023-01-10T17:09:45.865Z,4.93
2023-01-10T17:12:19.427Z,4.67
2023-01-10T17:14:48.723Z,4.37
2023-01-10T17:17:44.947Z,5.60
2023-01-10T17:20:16.080Z,4.33
2023-01-10T17:22:45.769Z,5.97
2023-01-10T17:25:16.953Z,5.57
2023-01-10T17:27:46.191Z,2.90
2023-01-10T17:30:15.297Z,2.57
2023-01-10T17:32:43.620Z,2.60
2023-01-10T17:35:11.998Z,4.00
2023-01-10T17:37:40.617Z,2.73
2023-01-10T17:40:11.981Z,3.10
2023-01-10T17:42:40.316Z,3.47
2023-01-10T17:45:09.564Z,4.87
2023-01-10T17:47:37.830Z,3.13
2023-01-10T17:50:06.602Z,4.30
2023-01-10T17:52:34.857Z,4.00
2023-01-10T17:55:11.127Z,3.80
2023-01-10T17:57:39.508Z,6.43
2023-01-10T18:00:33.174Z,5.73
2023-01-10T18:03:01.476Z,4.70
2023-01-10T18:05:29.818Z,5.17
2023-01-10T18:08:04.647Z,3.80
2023-01-10T18:10:35.183Z,3.27
2023-01-10T18:13:30.465Z,4.43
2023-01-10T18:15:59.328Z,3.10
2023-01-10T18:18:28.077Z,6.10
2023-01-10T18:20:58.279Z,5.10
2023-01-10T18:23:27.091Z,4.83
2023-01-10T18:25:59.918Z,5.67
2023-01-10T18:28:40.661Z,5.77
2023-01-10T18:31:11.252Z,6.80
2023-01-10T18:33:39.633Z,7.77
2023-01-10T18:36:09.840Z,4.87
2023-01-10T18:38:38.816Z,4.40
2023-01-10T18:41:08.497Z,2.07
2023-01-10T18:43:36.847Z,3.70
2023-01-10T18:46:07.744Z,4.40
2023-01-10T18:48:38.845Z,4.57
2023-01-10T18:51:08.992Z,7.00
2023-01-10T18:53:37.330Z,5.00
2023-01-10T18:56:08.417Z,4.40
2023-01-10T18:58:37.976Z,8.50
2023-01-10T19:01:07.838Z,11.40
2023-01-10T19:03:36.629Z,7.27
2023-01-10T19:06:06.733Z,8.80
2023-01-10T19:08:36.499Z,6.37
2023-01-10T19:11:13.859Z,3.73
2023-01-10T19:13:45.374Z,4.63
2023-01-10T19:16:15.151Z,5.40
2023-01-10T19:18:44.334Z,5.30
2023-01-10T19:21:38.996Z,2.93
2023-01-10T19:24:09.472Z,1.70
2023-01-10T19:26:40.441Z,4.27
2023-01-10T19:29:10.065Z,2.97
2023-01-10T19:31:38.491Z,2.87
2023-01-10T19:34:06.905Z,4.30
2023-01-10T19:36:35.591Z,4.33
2023-01-10T19:39:22.203Z,4.77
2023-01-10T19:41:50.424Z,2.73
2023-01-10T19:44:20.383Z,2.67
2023-01-10T19:46:49.170Z,2.50
2023-01-10T19:49:19.662Z,3.30
2023-01-10T19:51:51.343Z,4.53
2023-01-10T19:54:19.817Z,6.13
2023-01-10T19:56:48.178Z,12.77
2023-01-10T19:59:17.768Z,3.73
2023-01-10T20:01:47.756Z,4.33
2023-01-10T20:04:17.166Z,3.60
2023-01-10T20:06:47.374Z,10.43
2023-01-10T20:09:40.314Z,4.33
2023-01-10T20:12:08.680Z,2.87
2023-01-10T20:14:36.875Z,3.10
2023-01-10T20:17:07.931Z,4.20
2023-01-10T20:20:01.764Z,2.93
2023-01-10T20:22:30.230Z,3.40
2023-01-10T20:24:58.606Z,8.60
2023-01-10T20:27:26.853Z,6.53
2023-01-10T20:29:55.142Z,6.17
2023-01-10T20:32:25.036Z,6.73
2023-01-10T20:34:53.476Z,8.03
2023-01-10T20:37:23.679Z,5.20
2023-01-10T20:39:52.060Z,6.10
2023-01-10T20:42:20.495Z,8.40
2023-01-10T20:44:48.988Z,8.40
2023-01-10T20:47:18.219Z,9.03
2023-01-10T20:49:48.057Z,8.73
2023-01-10T20:52:16.416Z,8.27
2023-01-10T20:54:44.982Z,6.87
2023-01-10T20:57:13.175Z,8.30
2023-01-10T20:59:41.602Z,4.47
2023-01-10T21:02:15.772Z,3.87
2023-01-10T21:04:44.138Z,5.63
2023-01-10T21:07:16.650Z,4.63
2023-01-10T21:09:44.908Z,3.67
2023-01-10T21:12:23.033Z,3.57
2023-01-10T21:14:52.671Z,4.97
2023-01-10T21:17:21.901Z,3.73
2023-01-10T21:20:15.821Z,3.43
2023-01-10T21:22:46.731Z,1.63
2023-01-10T21:25:40.614Z,4.80
2023-01-10T21:28:10.023Z,4.47
2023-01-10T21:30:54.562Z,2.97
2023-01-10T21:33:22.900Z,5.57
2023-01-10T21:35:54.380Z,4.87
2023-01-10T21:38:24.165Z,2.90
2023-01-10T21:40:52.483Z,3.10
2023-01-10T21:43:20.813Z,2.43
2023-01-10T21:46:14.792Z,2.90
2023-01-10T21:48:43.044Z,5.53
2023-01-10T21:51:11.249Z,4.07
2023-01-10T21:53:43.074Z,2.60
2023-01-10T21:56:11.688Z,2.30
2023-01-10T21:58:39.965Z,2.27
2023-01-10T22:01:08.301Z,1.70
2023-01-10T22:03:36.670Z,1.57
2023-01-10T22:06:05.070Z,5.10
2023-01-10T22:08:33.341Z,6.10
2023-01-10T22:11:03.057Z,3.10
2023-01-10T22:13:31.439Z,2.07
2023-01-10T22:16:00.330Z,1.87
2023-01-10T22:18:29.440Z,3.20
2023-01-10T22:20:58.593Z,4.93
2023-01-10T22:23:29.611Z,10.73
2023-01-10T22:26:49.292Z,5.50
2023-01-10T22:29:20.433Z,34.97
2023-01-10T22:31:49.164Z,25.40
2023-01-10T22:34:17.967Z,9.60
2023-01-10T22:36:52.099Z,10.23
2023-01-10T22:39:20.491Z,10.60
2023-01-10T22:42:00.721Z,11.23
2023-01-10T22:44:30.665Z,18.27
2023-01-10T22:46:58.898Z,19.30
2023-01-10T22:49:27.239Z,8.73
2023-01-10T22:51:55.796Z,7.70
2023-01-10T22:54:24.117Z,19.20
2023-01-10T22:56:52.350Z,15.43
2023-01-10T22:59:20.665Z,14.80
2023-01-10T23:01:50.320Z,8.10
2023-01-10T23:04:20.415Z,6.50
2023-01-10T23:06:50.152Z,5.40
2023-01-10T23:09:18.596Z,4.53
2023-01-10T23:11:46.834Z,4.90
2023-01-10T23:14:15.169Z,4.53
2023-01-10T23:16:43.455Z,3.97
2023-01-10T23:19:13.118Z,4.30
2023-01-10T23:21:41.421Z,4.47
2023-01-10T23:24:09.947Z,3.77
2023-01-10T23:26:38.265Z,4.60
2023-01-10T23:29:06.503Z,4.37
2023-01-10T23:31:34.769Z,2.67
2023-01-10T23:34:03.023Z,3.57
2023-01-10T23:36:32.731Z,2.77
2023-01-10T23:39:01.037Z,2.97
2023-01-10T23:41:29.273Z,3.23
2023-01-10T23:43:57.523Z,3.37
2023-01-10T23:46:26.053Z,1.90
2023-01-10T23:48:54.342Z,2.27
2023-01-10T23:51:22.675Z,1.57
2023-01-10T23:53:52.244Z,2.03
2023-01-10T23:56:20.971Z,1.80
2023-01-10T23:58:52.641Z,1.50
